Time;durP1;ratioP1;P1;durP2;ratioP2;P2;SDS_P1;SDS_P2;PMS_P1;PMS_P2;Temp;Humidity;BMP_temperature;BMP_pressure;BME280_temperature;BME280_humidity;BME280_pressure;Samples;Min_cycle;Max_cycle;Signal;HPM_P1;HPM_P2
2022/05/13 00:02:08;;;;;;;4.25;1.10;;;10.20;99.90;;;;;;4937267;29;20082;-78
2022/05/13 00:04:33;;;;;;;5.20;0.50;;;10.20;99.90;;;;;;4937377;29;20071;-78
2022/05/13 00:06:59;;;;;;;2.22;0.82;;;10.20;99.90;;;;;;4937118;29;20515;-78
2022/05/13 00:12:10;;;;;;;2.63;0.73;;;10.20;99.90;;;;;;4930918;29;20491;-78
2022/05/13 00:14:35;;;;;;;5.15;1.10;;;10.20;99.90;;;;;;4939598;29;20046;-78
2022/05/13 00:17:01;;;;;;;5.00;1.90;;;10.30;99.90;;;;;;4935799;29;20047;-78
2022/05/13 00:19:27;;;;;;;3.25;1.13;;;10.20;99.90;;;;;;4935816;29;20122;-78
2022/05/13 00:21:52;;;;;;;5.40;1.63;;;10.30;99.90;;;;;;4937239;29;20075;-78
2022/05/13 00:24:18;;;;;;;6.53;1.58;;;10.30;99.90;;;;;;4939478;29;20051;-77
2022/05/13 00:26:43;;;;;;;2.35;1.27;;;10.30;99.90;;;;;;4935138;29;20617;-78
2022/05/13 00:29:09;;;;;;;4.45;1.55;;;10.30;99.90;;;;;;4935399;29;20522;-78
2022/05/13 00:31:35;;;;;;;3.83;1.17;;;10.30;99.90;;;;;;4938367;29;20043;-78
2022/05/13 00:34:01;;;;;;;6.38;1.45;;;10.40;99.90;;;;;;4943457;29;20392;-78
2022/05/13 00:36:27;;;;;;;3.72;1.38;;;10.40;99.90;;;;;;4935088;29;20047;-78
2022/05/13 00:38:52;;;;;;;5.72;1.35;;;10.50;99.90;;;;;;4936538;29;20046;-77
2022/05/13 00:41:18;;;;;;;2.55;1.23;;;10.50;99.90;;;;;;4936288;29;20118;-77
2022/05/13 00:43:51;;;;;;;2.50;1.20;;;10.60;99.90;;;;;;4942697;28;20116;-77
2022/05/13 00:46:17;;;;;;;3.38;1.48;;;10.60;99.90;;;;;;4935482;29;20063;-78
2022/05/13 00:48:43;;;;;;;4.30;1.38;;;10.70;99.90;;;;;;4936158;29;20044;-78
2022/05/13 00:51:11;;;;;;;2.17;1.42;;;10.80;99.90;;;;;;4938855;29;20042;-78
2022/05/13 00:53:37;;;;;;;6.55;1.88;;;10.80;99.90;;;;;;4943389;29;20047;-77
2022/05/13 00:56:04;;;;;;;1.83;1.30;;;10.80;99.90;;;;;;4934633;29;20064;-78
2022/05/13 00:58:33;;;;;;;6.55;1.60;;;10.80;99.90;;;;;;4937120;29;20398;-77
2022/05/13 01:00:59;;;;;;;7.80;1.70;;;10.80;99.90;;;;;;4941686;29;20078;-78
2022/05/13 01:03:24;;;;;;;5.63;1.65;;;10.90;99.90;;;;;;4945025;29;20090;-77
2022/05/13 01:05:55;;;;;;;4.32;1.10;;;10.90;99.90;;;;;;4934644;29;20046;-77
2022/05/13 01:08:21;;;;;;;7.57;1.25;;;10.90;99.90;;;;;;4934831;29;20044;-77
2022/05/13 01:10:49;;;;;;;5.82;1.52;;;10.90;99.90;;;;;;4939292;29;20105;-77
2022/05/13 01:13:23;;;;;;;2.38;1.33;;;10.90;99.90;;;;;;4947536;28;20039;-77
2022/05/13 01:15:51;;;;;;;4.95;1.33;;;11.00;99.90;;;;;;4934775;29;20047;-77
2022/05/13 01:18:37;;;;;;;5.15;1.42;;;11.00;99.90;;;;;;4934411;29;20040;-77
2022/05/13 01:21:05;;;;;;;4.53;1.58;;;11.00;99.90;;;;;;4945298;29;20078;-77
2022/05/13 01:23:37;;;;;;;6.50;2.13;;;11.10;99.90;;;;;;4947127;29;20041;-77
2022/05/13 01:26:08;;;;;;;5.60;1.33;;;11.10;99.90;;;;;;4934101;29;20072;-77
2022/05/13 01:28:37;;;;;;;7.53;1.92;;;11.10;99.90;;;;;;4937009;29;20123;-77
2022/05/13 01:31:07;;;;;;;6.93;2.40;;;11.10;99.90;;;;;;4946359;29;20053;-77
2022/05/13 01:33:33;;;;;;;3.33;2.38;;;11.10;99.90;;;;;;4934439;29;20035;-77
2022/05/13 01:36:01;;;;;;;6.93;1.63;;;11.20;99.90;;;;;;4934285;29;20044;-77
2022/05/13 01:38:33;;;;;;;4.80;1.15;;;11.10;99.90;;;;;;4934217;29;20065;-77
2022/05/13 01:40:59;;;;;;;4.70;1.10;;;11.20;99.90;;;;;;4924417;29;20039;-77
2022/05/13 01:43:25;;;;;;;4.30;1.38;;;11.20;99.90;;;;;;4951434;28;20054;-77
2022/05/13 01:45:52;;;;;;;3.50;0.80;;;11.20;99.90;;;;;;4935308;29;20047;-77
2022/05/13 01:48:18;;;;;;;7.35;1.73;;;11.20;99.90;;;;;;4934992;29;20123;-77
2022/05/13 01:50:43;;;;;;;3.00;1.10;;;11.20;99.90;;;;;;4919418;29;20042;-77
2022/05/13 01:53:09;;;;;;;5.90;1.30;;;11.20;99.90;;;;;;4921125;29;20510;-77
2022/05/13 01:55:36;;;;;;;6.20;2.75;;;11.20;99.90;;;;;;4937581;29;20126;-77
2022/05/13 01:58:01;;;;;;;2.22;1.35;;;11.20;99.90;;;;;;4935591;29;20450;-77
2022/05/13 02:00:28;;;;;;;3.28;1.40;;;11.20;99.90;;;;;;4937417;29;20061;-77
2022/05/13 02:05:37;;;;;;;3.15;1.17;;;11.20;99.90;;;;;;4937914;29;20199;-77
2022/05/13 02:08:03;;;;;;;3.42;1.63;;;11.20;99.90;;;;;;4936230;29;20078;-77
2022/05/13 02:10:29;;;;;;;2.97;1.27;;;11.20;99.90;;;;;;4938088;29;20071;-77
2022/05/13 02:12:55;;;;;;;4.05;1.45;;;11.20;99.90;;;;;;4940169;29;20039;-77
2022/05/13 02:15:21;;;;;;;3.47;1.20;;;11.20;99.90;;;;;;4935597;29;20411;-77
2022/05/13 02:17:47;;;;;;;4.43;2.10;;;11.20;99.90;;;;;;4935318;29;20047;-77
2022/05/13 02:20:13;;;;;;;4.80;1.50;;;11.20;99.90;;;;;;4935751;29;20047;-77
2022/05/13 02:22:39;;;;;;;5.72;1.70;;;11.20;99.90;;;;;;4939876;28;20039;-77
2022/05/13 02:25:05;;;;;;;4.75;1.52;;;11.20;99.90;;;;;;4941391;29;20107;-77
2022/05/13 02:27:31;;;;;;;6.25;2.33;;;11.20;99.90;;;;;;4918692;29;20048;-77
2022/05/13 02:29:56;;;;;;;2.25;1.60;;;11.20;99.90;;;;;;4934714;29;20126;-77
2022/05/13 02:32:22;;;;;;;3.08;1.67;;;11.20;99.90;;;;;;4942093;29;20130;-77
2022/05/13 02:34:48;;;;;;;6.10;2.03;;;11.30;99.90;;;;;;4936884;29;20082;-77
2022/05/13 02:37:13;;;;;;;3.25;2.28;;;11.20;99.90;;;;;;4934818;29;20081;-77
2022/05/13 02:39:39;;;;;;;5.03;1.23;;;11.20;99.90;;;;;;4933933;29;20048;-77
2022/05/13 02:42:05;;;;;;;6.47;1.73;;;11.20;99.90;;;;;;4941661;29;20313;-77
2022/05/13 02:44:31;;;;;;;4.40;1.35;;;11.20;99.90;;;;;;4938097;29;20046;-77
2022/05/13 02:46:56;;;;;;;6.35;1.67;;;11.20;99.90;;;;;;4933496;29;20055;-77
2022/05/13 02:49:22;;;;;;;6.45;1.67;;;11.30;99.90;;;;;;4935976;29;20040;-77
2022/05/13 02:51:48;;;;;;;3.92;1.17;;;11.30;99.90;;;;;;4941698;29;20043;-77
2022/05/13 02:54:15;;;;;;;4.18;1.77;;;11.30;99.90;;;;;;4937662;29;20074;-77
2022/05/13 02:56:40;;;;;;;3.97;1.48;;;11.30;99.90;;;;;;4934018;29;20050;-77
2022/05/13 02:59:06;;;;;;;2.53;1.38;;;11.30;99.90;;;;;;4934803;29;20035;-77
2022/05/13 03:01:32;;;;;;;12.05;3.00;;;11.30;99.90;;;;;;4942128;29;20038;-77
2022/05/13 03:03:58;;;;;;;4.05;1.73;;;11.30;99.90;;;;;;4938494;29;20043;-77
2022/05/13 03:06:24;;;;;;;6.57;1.92;;;11.20;99.90;;;;;;4946866;29;20039;-77
2022/05/13 03:08:51;;;;;;;4.10;1.60;;;11.20;99.90;;;;;;4937575;28;20036;-77
2022/05/13 03:11:17;;;;;;;3.25;1.73;;;11.20;99.90;;;;;;4939531;29;20035;-77
2022/05/13 03:13:43;;;;;;;6.43;1.60;;;11.20;99.90;;;;;;4945014;28;20036;-77
2022/05/13 03:16:17;;;;;;;6.55;1.50;;;11.20;99.90;;;;;;4935026;29;20047;-77
2022/05/13 03:18:43;;;;;;;5.53;1.20;;;11.20;99.90;;;;;;4934765;29;20070;-77
2022/05/13 03:21:09;;;;;;;3.88;1.52;;;11.20;99.90;;;;;;4938911;29;20682;-77
2022/05/13 03:23:35;;;;;;;4.40;1.30;;;11.20;99.90;;;;;;4945671;29;20043;-77
2022/05/13 03:26:01;;;;;;;9.07;2.00;;;11.20;99.90;;;;;;4934232;29;20127;-77
2022/05/13 03:28:26;;;;;;;7.65;1.80;;;11.20;99.90;;;;;;4934487;29;20432;-77
2022/05/13 03:30:52;;;;;;;5.13;2.17;;;11.20;99.90;;;;;;4937679;29;20035;-77
2022/05/13 03:33:19;;;;;;;4.72;2.00;;;11.20;99.90;;;;;;4944818;29;20082;-77
2022/05/13 03:35:45;;;;;;;8.02;3.05;;;11.20;99.90;;;;;;4944698;29;20040;-77
2022/05/13 03:38:11;;;;;;;6.88;1.90;;;11.20;99.90;;;;;;4933757;29;20586;-77
2022/05/13 03:40:37;;;;;;;4.75;1.45;;;11.20;99.90;;;;;;4940906;29;20043;-77
2022/05/13 03:43:04;;;;;;;8.55;1.98;;;11.20;99.90;;;;;;4951489;28;20494;-77
2022/05/13 03:45:32;;;;;;;5.82;1.65;;;11.20;99.90;;;;;;4933885;29;20047;-77
2022/05/13 03:47:59;;;;;;;3.90;2.13;;;11.20;99.90;;;;;;4932759;29;20067;-77
2022/05/13 03:50:25;;;;;;;5.43;1.92;;;11.20;99.90;;;;;;4932869;29;20051;-77
2022/05/13 03:52:51;;;;;;;5.70;1.60;;;11.20;99.90;;;;;;4932950;29;20051;-77
2022/05/13 03:55:17;;;;;;;5.75;2.60;;;11.20;99.90;;;;;;4934757;29;20043;-77
2022/05/13 03:57:42;;;;;;;5.05;1.48;;;11.20;99.90;;;;;;4932693;29;20423;-76
2022/05/13 04:00:10;;;;;;;5.82;1.77;;;11.20;99.90;;;;;;4933951;29;20047;-77
2022/05/13 04:02:36;;;;;;;6.38;1.85;;;11.20;99.90;;;;;;4934850;28;20031;-77
2022/05/13 04:10:31;;;;;;;5.57;1.70;;;11.20;99.90;;;;;;4933964;29;20079;-77
2022/05/13 04:18:25;;;;;;;7.05;1.70;;;11.20;99.90;;;;;;4934569;29;20048;-77
2022/05/13 04:20:50;;;;;;;6.72;1.92;;;11.20;99.90;;;;;;4935456;29;20446;-77
2022/05/13 04:23:18;;;;;;;8.38;2.10;;;11.20;99.90;;;;;;4938184;29;20043;-77
2022/05/13 04:25:44;;;;;;;3.75;1.70;;;11.30;99.90;;;;;;4932727;29;20111;-77
2022/05/13 04:28:10;;;;;;;5.88;1.58;;;11.30;99.90;;;;;;4934708;29;20044;-77
2022/05/13 04:30:36;;;;;;;8.40;3.38;;;11.30;99.90;;;;;;4919418;28;20039;-77
2022/05/13 04:33:03;;;;;;;11.35;2.10;;;11.30;99.90;;;;;;4943301;29;20043;-77
2022/05/13 04:35:28;;;;;;;12.15;2.00;;;11.30;99.90;;;;;;4936658;29;20047;-77
2022/05/13 04:37:54;;;;;;;6.82;1.95;;;11.40;99.90;;;;;;4938602;29;20035;-77
2022/05/13 04:40:20;;;;;;;9.13;3.30;;;11.40;99.90;;;;;;4937481;29;20047;-77
2022/05/13 04:42:51;;;;;;;9.15;2.20;;;11.40;99.90;;;;;;4945111;29;20122;-77
2022/05/13 04:45:28;;;;;;;11.32;3.33;;;11.40;99.90;;;;;;4936308;29;20146;-77
2022/05/13 04:50:41;;;;;;;4.88;1.90;;;11.50;99.90;;;;;;4945552;29;20058;-77
2022/05/13 04:53:08;;;;;;;8.40;2.40;;;11.50;99.90;;;;;;4944084;29;20079;-77
2022/05/13 04:55:34;;;;;;;5.72;1.77;;;11.50;99.90;;;;;;4936892;29;20087;-77
2022/05/13 04:58:00;;;;;;;14.77;2.28;;;11.50;99.90;;;;;;4937367;29;20090;-77
2022/05/13 05:00:27;;;;;;;10.07;3.53;;;11.50;99.90;;;;;;4939225;29;20071;-77
2022/05/13 05:02:52;;;;;;;6.35;2.10;;;11.60;99.90;;;;;;4946414;29;20039;-77
2022/05/13 05:05:18;;;;;;;5.63;1.80;;;11.60;99.90;;;;;;4938267;29;20055;-77
2022/05/13 05:07:44;;;;;;;8.93;1.65;;;11.60;99.90;;;;;;4920276;29;20050;-77
2022/05/13 05:10:10;;;;;;;10.63;3.60;;;11.60;99.90;;;;;;4939033;29;20044;-77
2022/05/13 05:12:37;;;;;;;8.40;2.58;;;11.70;99.90;;;;;;4946931;28;20035;-77
2022/05/13 05:15:03;;;;;;;8.07;2.05;;;11.70;99.90;;;;;;4937399;29;20047;-77
2022/05/13 05:17:29;;;;;;;8.35;1.77;;;11.70;99.90;;;;;;4935748;29;20099;-74
2022/05/13 05:19:54;;;;;;;7.75;3.05;;;11.70;99.90;;;;;;4941044;29;20529;-74
2022/05/13 05:22:20;;;;;;;12.18;3.03;;;11.70;99.90;;;;;;4948010;29;20475;-74
2022/05/13 05:24:46;;;;;;;8.82;2.42;;;11.70;99.90;;;;;;4936581;29;20046;-74
2022/05/13 05:27:12;;;;;;;4.68;1.45;;;11.70;99.90;;;;;;4937394;29;20047;-77
2022/05/13 05:29:38;;;;;;;5.82;1.63;;;11.80;99.90;;;;;;4939606;29;20051;-76
2022/05/13 05:32:04;;;;;;;9.98;3.42;;;11.80;99.90;;;;;;4951103;29;20119;-77
2022/05/13 05:34:30;;;;;;;9.10;2.40;;;11.90;99.90;;;;;;4935346;29;20049;-77
2022/05/13 05:36:56;;;;;;;9.55;1.38;;;12.00;99.90;;;;;;4950593;29;20184;-77
2022/05/13 05:39:22;;;;;;;9.30;2.00;;;12.10;99.90;;;;;;4944049;29;20119;-77
2022/05/13 05:41:47;;;;;;;8.60;2.15;;;12.20;99.90;;;;;;4953834;28;20059;-77
2022/05/13 05:44:13;;;;;;;10.27;2.83;;;12.30;99.90;;;;;;4935736;29;20051;-77
2022/05/13 05:46:39;;;;;;;11.77;3.38;;;12.40;99.90;;;;;;4937614;29;20119;-77
2022/05/13 05:49:05;;;;;;;8.20;2.15;;;12.50;99.90;;;;;;4934498;29;20048;-77
2022/05/13 05:51:31;;;;;;;13.95;2.30;;;12.60;99.90;;;;;;4953951;29;20045;-77
2022/05/13 05:59:25;;;;;;;5.78;2.08;;;12.90;99.90;;;;;;4937333;29;20073;-77
2022/05/13 06:01:51;;;;;;;7.95;2.78;;;12.90;99.90;;;;;;4954441;28;20039;-77
2022/05/13 06:04:16;;;;;;;7.47;2.47;;;12.90;99.90;;;;;;4938335;29;20040;-77
2022/05/13 06:06:43;;;;;;;7.15;2.45;;;13.00;99.90;;;;;;4936485;29;20116;-77
2022/05/13 06:09:09;;;;;;;14.40;3.42;;;13.10;99.90;;;;;;4935575;29;20415;-77
2022/05/13 06:11:36;;;;;;;8.98;2.22;;;13.30;99.90;;;;;;4942126;29;20122;-77
2022/05/13 06:14:03;;;;;;;6.70;1.92;;;13.60;99.90;;;;;;4937126;29;20410;-77
2022/05/13 06:16:30;;;;;;;9.02;2.65;;;13.80;99.90;;;;;;4934512;29;20052;-77
2022/05/13 06:19:00;;;;;;;5.57;2.00;;;14.00;99.90;;;;;;4936313;29;20046;-77
2022/05/13 06:21:31;;;;;;;6.15;2.40;;;14.10;99.90;;;;;;4936371;29;20043;-77
2022/05/13 06:23:57;;;;;;;12.52;2.08;;;14.20;99.90;;;;;;4936591;29;20490;-77
2022/05/13 06:26:23;;;;;;;9.32;1.75;;;14.40;99.90;;;;;;4935497;29;20071;-77
2022/05/13 06:28:49;;;;;;;5.93;2.33;;;14.50;99.90;;;;;;4935565;29;20031;-77
2022/05/13 06:31:16;;;;;;;9.10;2.42;;;14.50;99.90;;;;;;4938050;29;20040;-77
2022/05/13 06:33:42;;;;;;;6.80;2.78;;;14.50;99.90;;;;;;4935436;29;20126;-77
2022/05/13 06:36:08;;;;;;;7.68;1.50;;;14.50;99.90;;;;;;4935516;29;20135;-77
2022/05/13 06:38:33;;;;;;;7.40;2.38;;;14.60;99.90;;;;;;4934319;29;20521;-77
2022/05/13 06:40:59;;;;;;;12.15;1.90;;;14.60;99.90;;;;;;4938736;29;20035;-77
2022/05/13 06:43:24;;;;;;;6.40;1.70;;;14.70;99.90;;;;;;4935653;29;20591;-77
2022/05/13 06:45:50;;;;;;;13.65;2.97;;;14.60;99.90;;;;;;4934568;29;20446;-77
2022/05/13 06:48:16;;;;;;;7.47;1.88;;;14.60;99.90;;;;;;4931187;29;20443;-77
2022/05/13 06:50:43;;;;;;;6.20;2.10;;;14.70;99.90;;;;;;4935934;29;20040;-77
2022/05/13 06:53:10;;;;;;;8.00;1.73;;;14.80;99.90;;;;;;4933401;29;20035;-78
2022/05/13 06:55:35;;;;;;;4.95;1.10;;;15.00;99.90;;;;;;4921959;29;20036;-77
2022/05/13 06:58:01;;;;;;;5.55;1.15;;;15.30;99.90;;;;;;4939573;29;20558;-77
2022/05/13 07:00:26;;;;;;;4.90;1.20;;;15.30;99.90;;;;;;4937254;29;20052;-78
2022/05/13 07:02:52;;;;;;;5.95;1.73;;;15.30;99.90;;;;;;4937367;29;20104;-78
2022/05/13 07:05:20;;;;;;;5.88;1.20;;;15.40;99.90;;;;;;4924171;29;20048;-77
2022/05/13 07:07:46;;;;;;;8.10;2.60;;;15.50;99.90;;;;;;4938858;29;20043;-77
2022/05/13 07:10:12;;;;;;;9.63;2.10;;;15.60;99.90;;;;;;4937259;29;20086;-74
2022/05/13 07:12:38;;;;;;;5.75;1.60;;;15.60;99.90;;;;;;4937652;29;20483;-74
2022/05/13 07:15:06;;;;;;;10.80;1.67;;;15.60;99.90;;;;;;4939639;29;20061;-74
2022/05/13 07:17:32;;;;;;;7.78;1.70;;;15.50;99.90;;;;;;4938162;29;20051;-74
2022/05/13 07:19:57;;;;;;;7.00;1.95;;;15.40;99.90;;;;;;4932458;29;20035;-75
2022/05/13 07:22:23;;;;;;;9.75;2.33;;;15.30;99.90;;;;;;4941190;29;20655;-74
2022/05/13 07:24:51;;;;;;;7.53;1.75;;;15.20;99.90;;;;;;4939566;28;20045;-74
2022/05/13 07:27:17;;;;;;;5.15;1.63;;;15.20;99.90;;;;;;4939834;29;20148;-74
2022/05/13 07:29:42;;;;;;;5.15;1.40;;;15.20;99.90;;;;;;4931778;29;20546;-74
2022/05/13 07:32:09;;;;;;;7.85;1.83;;;15.20;99.90;;;;;;4934421;29;20080;-75
2022/05/13 07:34:34;;;;;;;4.03;0.75;;;15.10;99.90;;;;;;4939478;28;20070;-74
2022/05/13 07:37:00;;;;;;;4.55;1.20;;;15.00;99.90;;;;;;4936977;29;20082;-74
2022/05/13 07:42:10;;;;;;;6.85;2.05;;;15.00;99.90;;;;;;4940285;29;20044;-75
2022/05/13 07:44:37;;;;;;;21.02;7.97;;;15.10;99.90;;;;;;4933988;29;20036;-75
2022/05/13 07:47:05;;;;;;;4.38;0.65;;;15.30;99.90;;;;;;4936737;29;20079;-75
2022/05/13 07:49:30;;;;;;;24.45;14.38;;;15.40;99.90;;;;;;4935529;29;20046;-75
2022/05/13 07:51:56;;;;;;;9.68;1.40;;;15.60;99.90;;;;;;4931705;29;20116;-75
2022/05/13 07:54:22;;;;;;;3.58;0.95;;;15.80;99.90;;;;;;4941199;29;20036;-75
2022/05/13 07:56:48;;;;;;;4.05;0.70;;;16.10;99.90;;;;;;4930380;29;20058;-75
2022/05/13 07:59:14;;;;;;;6.63;0.90;;;16.40;99.90;;;;;;4929741;29;20075;-75
2022/05/13 08:01:39;;;;;;;2.75;0.50;;;16.50;99.90;;;;;;4937506;29;20037;-75
2022/05/13 08:04:05;;;;;;;3.45;0.40;;;16.50;99.90;;;;;;4942979;29;20110;-77
2022/05/13 08:06:32;;;;;;;5.03;0.70;;;16.40;99.90;;;;;;4937798;29;20051;-77
2022/05/13 08:08:58;;;;;;;5.90;0.68;;;16.70;99.90;;;;;;4945210;29;20043;-76
2022/05/13 08:11:26;;;;;;;3.60;0.50;;;17.10;99.90;;;;;;4941489;29;20383;-76
2022/05/13 08:13:52;;;;;;;4.93;0.55;;;17.20;99.80;;;;;;4942793;29;20036;-77
2022/05/13 08:16:21;;;;;;;1.30;0.20;;;17.20;99.30;;;;;;4939967;29;20052;-77
2022/05/13 08:18:49;;;;;;;2.55;0.20;;;17.20;97.00;;;;;;4946633;29;20035;-77
2022/05/13 08:21:14;;;;;;;3.00;0.80;;;16.90;96.80;;;;;;4940532;29;20487;-77
2022/05/13 08:23:40;;;;;;;3.92;0.93;;;16.90;96.80;;;;;;4948689;29;20118;-77
2022/05/13 08:26:06;;;;;;;1.70;0.57;;;17.20;96.80;;;;;;4944874;29;20058;-77
2022/05/13 08:28:32;;;;;;;6.57;0.68;;;17.40;96.20;;;;;;4943609;29;20043;-76
2022/05/13 08:30:58;;;;;;;3.25;0.30;;;17.40;95.00;;;;;;4940876;29;20039;-77
2022/05/13 08:33:24;;;;;;;2.60;0.47;;;17.20;94.90;;;;;;4948273;29;20499;-77
2022/05/13 08:35:52;;;;;;;1.02;0.40;;;16.90;95.00;;;;;;4938393;29;20048;-76
2022/05/13 08:38:23;;;;;;;2.80;0.30;;;16.70;95.50;;;;;;4946130;29;20046;-76
2022/05/13 08:40:54;;;;;;;3.40;0.43;;;16.40;96.10;;;;;;4945762;29;20050;-76
2022/05/13 08:43:27;;;;;;;4.05;0.20;;;16.10;96.60;;;;;;4933661;29;20088;-76
2022/05/13 08:46:10;;;;;;;9.20;1.17;;;16.10;97.20;;;;;;4941004;29;20036;-75
2022/05/13 08:48:45;;;;;;;105.95;72.85;;;16.00;96.00;;;;;;4934882;29;20050;-75
2022/05/13 08:51:49;;;;;;;98.18;69.65;;;15.90;96.50;;;;;;4943243;29;20566;-75
2022/05/13 08:54:18;;;;;;;7.57;2.53;;;15.90;97.70;;;;;;4940149;28;20095;-76
2022/05/13 08:56:49;;;;;;;3.42;0.40;;;15.90;97.70;;;;;;4943478;29;20047;-76
2022/05/13 08:59:23;;;;;;;2.63;0.40;;;15.80;97.20;;;;;;4944915;29;20047;-76
2022/05/13 09:02:01;;;;;;;2.67;0.30;;;15.80;98.20;;;;;;4933639;29;20131;-76
2022/05/13 09:04:34;;;;;;;5.30;0.40;;;15.90;98.10;;;;;;4941416;29;20495;-76
2022/05/13 09:07:02;;;;;;;4.65;0.77;;;15.80;97.70;;;;;;4943744;29;20052;-76
2022/05/13 09:09:28;;;;;;;3.42;0.50;;;15.80;97.50;;;;;;4943096;29;20415;-76
2022/05/13 09:12:09;;;;;;;1.88;0.40;;;15.70;98.30;;;;;;4950294;29;20046;-76
2022/05/13 09:14:45;;;;;;;4.63;1.67;;;15.90;98.10;;;;;;4942999;29;20545;-76
2022/05/13 09:17:20;;;;;;;3.05;0.70;;;16.60;97.10;;;;;;4941828;28;20047;-76
2022/05/13 09:20:14;;;;;;;2.93;0.90;;;17.10;95.60;;;;;;4941876;29;20490;-77
2022/05/13 09:22:41;;;;;;;3.08;0.38;;;17.50;94.80;;;;;;4944566;29;20872;-77
2022/05/13 09:25:14;;;;;;;6.53;1.08;;;17.60;93.60;;;;;;4938163;29;20054;-77
2022/05/13 09:28:09;;;;;;;3.42;0.40;;;17.60;92.10;;;;;;4936568;28;20046;-76
2022/05/13 09:30:44;;;;;;;2.95;0.82;;;17.70;91.70;;;;;;4933000;29;20051;-76
2022/05/13 09:33:22;;;;;;;3.00;0.32;;;17.80;90.50;;;;;;4938540;29;20058;-76
2022/05/13 09:35:51;;;;;;;5.72;0.50;;;17.70;90.30;;;;;;4945140;29;20118;-76
2022/05/13 09:38:26;;;;;;;4.82;0.57;;;17.40;90.90;;;;;;4934329;29;20159;-76
2022/05/13 09:40:59;;;;;;;;;;;17.20;91.20;;;;;;4934435;29;20048;-76
2022/05/13 09:43:38;;;;;;;4.15;0.30;;;17.20;91.50;;;;;;4933870;29;19932;-77
2022/05/13 09:46:09;;;;;;;7.45;0.85;;;17.40;91.30;;;;;;4933072;29;20106;-76
2022/05/13 09:48:38;;;;;;;2.67;0.50;;;17.40;89.00;;;;;;4929880;29;20053;-76
2022/05/13 09:51:28;;;;;;;5.53;0.30;;;17.20;89.40;;;;;;4935227;29;20040;-76
2022/05/13 09:54:13;;;;;;;1.83;0.88;;;17.00;90.00;;;;;;4933825;29;20099;-76
2022/05/13 09:56:41;;;;;;;;;;;16.90;90.30;;;;;;4931075;29;20044;-76
2022/05/13 09:59:15;;;;;;;1.75;0.35;;;16.80;90.50;;;;;;4932332;29;20431;-76
2022/05/13 10:01:41;;;;;;;1.48;0.30;;;16.70;90.60;;;;;;4928743;29;20142;-76
2022/05/13 10:04:12;;;;;;;2.80;0.32;;;16.50;90.70;;;;;;4936267;29;20119;-76
2022/05/13 10:06:40;;;;;;;2.13;0.30;;;16.60;91.40;;;;;;4933642;29;20036;-76
2022/05/13 10:15:15;;;;;;;1.88;0.30;;;16.60;91.30;;;;;;4932746;29;20055;-76
2022/05/13 10:17:47;;;;;;;4.03;0.40;;;16.40;91.50;;;;;;4931514;28;20171;-76
2022/05/13 10:20:33;;;;;;;5.65;0.20;;;16.30;92.40;;;;;;4931754;29;20479;-76
2022/05/13 10:23:09;;;;;;;2.05;0.47;;;16.30;92.30;;;;;;4928052;29;20175;-75
2022/05/13 10:25:57;;;;;;;3.33;0.30;;;16.40;92.10;;;;;;4931663;29;20044;-77
2022/05/13 10:28:33;;;;;;;5.40;0.60;;;16.60;91.80;;;;;;4933089;29;20491;-77
2022/05/13 10:31:14;;;;;;;3.13;0.43;;;17.10;91.60;;;;;;4933414;29;20445;-76
2022/05/13 10:33:58;;;;;;;2.65;0.73;;;17.40;91.00;;;;;;4935096;29;20043;-75
2022/05/13 10:36:41;;;;;;;3.28;0.50;;;17.40;90.10;;;;;;4935442;29;20052;-76
2022/05/13 10:39:38;;;;;;;2.15;0.40;;;17.50;89.80;;;;;;4935916;29;20044;-76
2022/05/13 10:42:13;;;;;;;1.40;0.20;;;17.70;89.90;;;;;;4933429;29;20051;-75
2022/05/13 10:45:02;;;;;;;3.85;0.50;;;17.90;89.20;;;;;;4933224;29;20114;-76
2022/05/13 10:47:52;;;;;;;1.98;0.30;;;18.10;88.40;;;;;;4932838;29;20525;-77
2022/05/13 10:50:25;;;;;;;3.38;0.35;;;18.20;86.20;;;;;;4933685;29;20473;-77
2022/05/13 10:53:01;;;;;;;0.88;0.45;;;17.90;85.00;;;;;;4933415;29;20051;-77
2022/05/13 10:55:47;;;;;;;6.38;0.32;;;17.70;85.30;;;;;;4919745;29;20190;-76
2022/05/13 10:58:21;;;;;;;2.42;0.30;;;17.90;87.70;;;;;;4929497;29;20044;-77
2022/05/13 11:00:53;;;;;;;5.13;0.60;;;18.00;87.60;;;;;;4937217;29;20510;-77
2022/05/13 11:03:35;;;;;;;4.32;0.40;;;18.00;87.00;;;;;;4921088;29;20121;-77
2022/05/13 11:06:11;;;;;;;1.02;0.20;;;17.90;86.30;;;;;;4927492;29;20483;-77
2022/05/13 11:08:55;;;;;;;2.47;0.55;;;17.90;87.20;;;;;;4931289;29;20031;-77
2022/05/13 11:11:43;;;;;;;4.68;0.50;;;17.90;87.90;;;;;;4937717;29;20044;-77
2022/05/13 11:14:32;;;;;;;5.18;0.47;;;17.90;88.30;;;;;;4936571;29;20427;-77
2022/05/13 11:17:14;;;;;;;2.25;0.38;;;18.20;87.70;;;;;;4955949;28;20516;-77
2022/05/13 11:20:00;;;;;;;5.97;1.58;;;18.50;86.00;;;;;;4939963;29;20047;-77
2022/05/13 11:22:30;;;;;;;3.50;0.70;;;18.30;83.80;;;;;;4939488;29;20052;-77
2022/05/13 11:28:10;;;;;;;5.28;0.55;;;18.00;85.80;;;;;;4934243;29;20035;-77
2022/05/13 11:31:08;;;;;;;2.88;0.60;;;18.30;86.50;;;;;;4929268;29;20402;-77
2022/05/13 11:33:52;;;;;;;8.68;2.75;;;18.40;82.90;;;;;;4935087;29;20044;-77
2022/05/13 11:36:42;;;;;;;1.77;0.20;;;18.20;81.60;;;;;;4927020;29;20129;-77
2022/05/13 11:39:52;;;;;;;7.10;0.55;;;17.90;81.60;;;;;;4932842;29;20059;-77
2022/05/13 11:46:01;;;;;;;2.70;0.52;;;17.60;80.20;;;;;;4936489;29;20047;-77
2022/05/13 11:48:37;;;;;;;1.55;0.25;;;17.50;81.00;;;;;;4931504;29;20043;-77
2022/05/13 11:51:11;;;;;;;3.35;0.30;;;17.40;82.20;;;;;;4935116;29;20114;-77
2022/05/13 11:54:01;;;;;;;2.05;0.40;;;17.30;81.10;;;;;;4945638;29;20031;-77
2022/05/13 11:56:38;;;;;;;6.40;0.52;;;17.30;82.60;;;;;;4950497;29;20110;-77
2022/05/13 11:59:29;;;;;;;4.18;0.40;;;17.40;81.60;;;;;;4937644;29;20047;-77
2022/05/13 12:02:15;;;;;;;3.47;0.30;;;17.50;80.90;;;;;;4935853;29;20043;-77
2022/05/13 12:05:08;;;;;;;2.00;0.20;;;17.50;79.70;;;;;;4936395;29;20043;-77
2022/05/13 12:07:49;;;;;;;3.42;0.32;;;17.70;81.40;;;;;;4901251;29;20123;-77
2022/05/13 12:10:32;;;;;;;3.47;0.75;;;17.90;80.20;;;;;;4928628;29;20046;-77
2022/05/13 12:13:24;;;;;;;2.85;0.25;;;18.30;80.70;;;;;;4947665;29;20142;-77
2022/05/13 12:16:25;;;;;;;1.35;0.40;;;18.80;79.40;;;;;;4932101;29;20116;-77
2022/05/13 12:19:37;;;;;;;1.00;0.20;;;19.30;76.50;;;;;;4911188;29;20147;-77
2022/05/13 12:22:19;;;;;;;9.85;1.38;;;19.10;76.20;;;;;;4948243;29;20127;-77
2022/05/13 12:25:33;;;;;;;;;;;;;;;;;;;;;
2022/05/13 12:28:17;;;;;;;4.22;0.68;;;19.20;74.60;;;;;;4943895;29;20047;-78
2022/05/13 12:30:55;;;;;;;7.28;1.20;;;19.10;74.30;;;;;;4938324;29;20043;-77
2022/05/13 12:33:27;;;;;;;98.18;63.90;;;19.00;75.60;;;;;;4949719;29;20039;-78
2022/05/13 12:39:10;;;;;;;69.60;43.35;;;18.90;77.50;;;;;;4935445;29;20486;-76
2022/05/13 12:41:43;;;;;;;5.47;0.88;;;19.00;78.30;;;;;;4934333;29;20114;-75
2022/05/13 12:44:29;;;;;;;3.90;0.70;;;18.80;77.30;;;;;;4943433;29;20087;-75
2022/05/13 12:47:17;;;;;;;2.80;0.60;;;18.60;76.60;;;;;;4899983;29;20131;-75
2022/05/13 12:49:49;;;;;;;7.25;0.82;;;18.90;76.50;;;;;;4944025;28;20122;-76
2022/05/13 12:52:38;;;;;;;4.90;0.57;;;18.90;76.70;;;;;;4934924;29;20047;-76
2022/05/13 12:55:23;;;;;;;6.60;0.43;;;19.10;77.10;;;;;;4930906;29;20051;-75
2022/05/13 12:57:55;;;;;;;4.07;0.43;;;19.60;76.90;;;;;;4932698;29;20085;-76
2022/05/13 13:00:33;;;;;;;5.75;0.70;;;20.20;74.80;;;;;;4937113;29;20047;-75
2022/05/13 13:03:24;;;;;;;3.30;0.60;;;20.20;71.40;;;;;;4943875;29;20112;-75
2022/05/13 13:06:11;;;;;;;2.25;0.30;;;19.80;71.30;;;;;;4938330;29;20388;-75
2022/05/13 13:08:53;;;;;;;3.22;0.60;;;19.60;71.10;;;;;;4932540;29;20121;-77
2022/05/13 13:11:55;;;;;;;12.98;1.00;;;19.70;71.90;;;;;;4936441;29;20402;-77
2022/05/13 13:14:45;;;;;;;5.32;0.50;;;20.30;70.30;;;;;;4905766;29;20043;-77
2022/05/13 13:17:23;;;;;;;;;;;20.20;69.00;;;;;;4945838;28;20050;-77
2022/05/13 13:19:58;;;;;;;2.45;0.30;;;20.00;70.00;;;;;;4931842;29;20007;-77
2022/05/13 13:22:36;;;;;;;7.47;0.60;;;19.80;68.60;;;;;;4936093;29;20036;-77
2022/05/13 13:25:19;;;;;;;5.25;1.08;;;19.50;69.00;;;;;;4919290;29;20095;-77
2022/05/13 13:27:45;;;;;;;2.72;0.70;;;19.20;70.10;;;;;;4943392;28;20103;-77
2022/05/13 13:30:23;;;;;;;3.55;0.90;;;19.00;70.70;;;;;;4944958;29;20058;-77
2022/05/13 13:33:03;;;;;;;5.20;0.70;;;18.80;70.80;;;;;;4938133;29;20042;-77
2022/05/13 13:35:39;;;;;;;3.47;0.30;;;18.70;70.60;;;;;;4942030;29;20039;-77
2022/05/13 13:38:12;;;;;;;2.75;0.40;;;19.10;71.30;;;;;;4915471;29;20075;-77
2022/05/13 13:40:43;;;;;;;4.05;0.60;;;19.60;70.50;;;;;;4935639;29;20047;-77
2022/05/13 13:43:41;;;;;;;2.30;0.30;;;20.00;69.80;;;;;;4945712;29;20062;-78
2022/05/13 13:46:47;;;;;;;2.97;0.40;;;20.00;68.30;;;;;;4938272;29;20471;-78
2022/05/13 13:49:59;;;;;;;4.15;0.80;;;20.30;67.50;;;;;;4934445;28;20114;-78
2022/05/13 13:52:35;;;;;;;3.95;0.45;;;20.30;67.60;;;;;;4941032;29;20491;-77
2022/05/13 13:55:07;;;;;;;5.97;0.73;;;20.60;67.70;;;;;;4918648;29;20490;-77